« Back
NWS Peachtree City, Ga » Text Product » AHN Terminal Aerodrome Forecast


Printer-friendly Version
Current Version              Previous Versions:   1  2  3  4  5  6  7  8  9  

Terminal Aerodrome Forecast

766
FTUS42 KFFC 220259 AAA
TAFAHN
TAF AMD
KAHN 220259Z 2203/2224 30010G15KT P6SM SCT035
     FM220600 32008KT P6SM FEW035
     FM220900 VRB03KT P6SM SKC
     FM221200 03005KT P6SM SKC
     FM221500 06007KT P6SM SKC
     FM221800 09006KT P6SM FEW035=

USA.gov is the U.S. government's official web portal to all federal, state and local government web resources and services.